首页
METAR-TAF:

METAR-TAF

机场 :

Cobb County Airport (McCollum Field)

亚特兰大 / Kennesaw, 喬治亞, 美国

纬度: 34-00-47N, 经度: 084-35-55W, 海拔: 317米

当前天气观测

该预报发布于1小时和3分钟前的14:50 UTC
风速4节,风向西转西北
温度 3°C
湿度 75%
气压 1021 hPa
能見度: 16.1公里
天空无云

METAR: KRYY 261450Z 29004KT 10SM CLR 03/M01 A3014 RMK AO2 SLP929 T00281011 51012 $

时间: 10:53 (15:53 UTC)

预报

该预报发布于4小时和20分钟前的11:33 UTC
预报有效从26日的 12点(UTC)到 27日的 12点(UTC)
风速6节,风向西转西北
能見度: 10公里
散云层高于25000英尺
从 26日的 1500点(UTC)
风速5节,风向西转西北
能見度: 10公里
散云层高于8000英尺
多云层高于15000英尺
从 26日的 1800点(UTC)
风速6节,风向西
能見度: 10公里
散云层高于5000英尺
多云层高于8000英尺
从 27日的 0000点(UTC)
风速4节,风向西转西南
能見度: 10公里
阴天层高于5000英尺
几率 30%
从 27日的 03点(UTC)到 27日的 06点(UTC)
能見度: 9.7公里
多云层高于2500英尺
小阵雨, 轻雾
从 27日的 0600点(UTC)
风速4节,风向西南
能見度: 9.7公里
阴天层高于2500英尺
小阵雨, 轻雾
从 27日的 0900点(UTC)
风速3节,风向西南
能見度: 4.8公里
阴天层高于400英尺
小阵雨, 轻雾

TAF: KRYY 261133Z 2612/2712 29006KT P6SM SCT250 FM261500 30005KT P6SM SCT080 BKN150 FM261800 28006KT P6SM SCT050 BKN080 FM270000 25004KT P6SM OVC050 PROB30 2703/2706 6SM -SHRA BR BKN025 FM270600 23004KT 6SM -SHRA BR OVC025 FM270900 23003KT 3SM -SHRA BR OVC004

超过4000个机场的气象观测和天气预报(METAR&TAF报告)。

可查询的气象台以黄色和红色小点在地图上表示。

将鼠标移到小点上方,可查看气象台名称。

然后点击查看天气观测和预报。

如需切换地图:点击带黑十字的绿色按钮放大地图;点击带横线的绿色按钮缩小地图;或者点击绿色箭头查看邻近地区的地图。


METAR-TAF: